MSC Candice — 3ENC5 — position and weather

sailwx.info

Track history (hours):
 
Tides and Currents Weather Stations Pressure Air Temp Water Temp Dewpoint Dewpoint Depression Visibility Wind Speed Wind Dir Waves Ship Positions

MSC Candice

Last reported at 2017-Dec-09 10:50 UTC. Time now 2017-Dec-12 21:54 UTC.
Position N 01°16' E 103°23'.

Length 337 m; draft 10.6 m.

Type: Ship (hazmat cat A). MMSI: 352871000.

Date/timePositionNaut miles runAvg speedWind from/ knotsBaromVisibWave heightAir tempDewpointWater temp
2017-Dec-09 10:50N 01°16' E 103°23'615.9
2017-Dec-09 10:27N 01°13' E 103°28'715.1
2017-Dec-09 10:00N 01°11' E 103°35'611.4
2017-Dec-09 09:31N 01°13' E 103°40'611.3
2017-Dec-09 09:01N 01°16' E 103°45'1 2.7
2017-Dec-09 08:30N 01°16' E 103°46'0 0.0
2017-Dec-09 07:54N 01°16' E 103°46'0 0.0
2017-Dec-09 07:30N 01°16' E 103°46'0 0.0
2017-Dec-09 06:57N 01°16' E 103°46'0 0.0
2017-Dec-09 06:30N 01°16' E 103°46'0 0.0
2017-Dec-09 05:57N 01°16' E 103°46'0 0.0
2017-Dec-09 05:27N 01°16' E 103°46'0 0.0
2017-Dec-09 04:54N 01°16' E 103°46'0 0.0
2017-Dec-09 04:30N 01°16' E 103°46'0 0.0
2017-Dec-09 03:48N 01°16' E 103°46'0 0.0
2017-Dec-09 03:30N 01°16' E 103°46'0 0.0
2017-Dec-09 02:57N 01°16' E 103°46'0 0.0
2017-Dec-09 02:27N 01°16' E 103°46'0 0.0
2017-Dec-09 02:00N 01°16' E 103°46'0 0.0
2017-Dec-09 01:30N 01°16' E 103°46'0 0.0
2017-Dec-09 01:00N 01°16' E 103°46'0 0.0
2017-Dec-09 00:30N 01°16' E 103°46'0 0.0
2017-Dec-08 23:57N 01°16' E 103°46'0 0.0
2017-Dec-08 23:27N 01°16' E 103°46'0 0.0
2017-Dec-08 22:57N 01°16' E 103°46'0 0.0
2017-Dec-08 22:30N 01°16' E 103°46'0 0.0
2017-Dec-08 21:57N 01°16' E 103°46'0 0.0
2017-Dec-08 21:30N 01°16' E 103°46'0 0.0
2017-Dec-08 20:54N 01°16' E 103°46'0 0.0
2017-Dec-08 20:30N 01°16' E 103°46'0 0.0
2017-Dec-08 19:54N 01°16' E 103°46'0 0.0
2017-Dec-08 19:30N 01°16' E 103°46'0 0.0
2017-Dec-08 18:57N 01°16' E 103°46'0 0.0
2017-Dec-08 18:30N 01°16' E 103°46'0 0.0
2017-Dec-08 18:00N 01°16' E 103°46'0 0.0
2017-Dec-08 17:30N 01°16' E 103°46'0 0.0
2017-Dec-08 16:54N 01°16' E 103°46'0 0.0
2017-Dec-08 16:30N 01°16' E 103°46'0 0.0
2017-Dec-08 15:57N 01°16' E 103°46'0 0.0
2017-Dec-08 15:30N 01°16' E 103°46'0 0.0
2017-Dec-08 15:00N 01°16' E 103°46'1 1.0
2017-Dec-08 14:30N 01°16' E 103°46'4 7.3
2017-Dec-08 14:00N 01°13' E 103°48'510.5
2017-Dec-08 13:30N 01°14' E 103°54'2 3.8
2017-Dec-08 13:01N 01°14' E 103°55'510.6
2017-Dec-08 12:31N 01°16' E 104°01'611.1
2017-Dec-08 11:58N 01°16' E 104°06'  
2017-Dec-01 02:26N 31°06' E 122°24'3 5.5
2017-Dec-01 01:51N 31°07' E 122°27'7 0.6
2017-Nov-30 15:05N 31°06' E 122°19'113.9
2017-Nov-30 14:59N 31°07' E 122°18'1114.3
2017-Nov-30 14:12N 31°13' E 122°07'314.7
2017-Nov-30 14:00N 31°14' E 122°04'714.3
2017-Nov-30 13:30N 31°15' E 121°55'714.0
2017-Nov-30 13:00N 31°18' E 121°48'8 0.4
2017-Nov-29 19:05N 31°20' E 121°39'0 0.0
2017-Nov-29 18:59N 31°20' E 121°39'1 0.1
2017-Nov-29 12:25N 31°21' E 121°40'510.0
2017-Nov-29 11:56N 31°19' E 121°45'510.7
2017-Nov-29 11:30N 31°17' E 121°50'611.4
2017-Nov-29 10:57N 31°15' E 121°57'  
Track history (hours):
 
Tides and Currents Weather Stations Pressure Air Temp Water Temp Dewpoint Dewpoint Depression Visibility Wind Speed Wind Dir Waves Ship Positions

MSC Candice

Last reported at 2017-Dec-09 10:50 UTC. Time now 2017-Dec-12 21:54 UTC.
Position N 01°16' E 103°23'.

Length 337 m; draft 10.6 m.

Type: Ship (hazmat cat A). MMSI: 352871000.

Date/timePositionNaut miles runAvg speedWind from/ knotsBaromVisibWave heightAir tempDewpointWater temp
2017-Dec-09 10:50N 01°16' E 103°23'615.9
2017-Dec-09 10:27N 01°13' E 103°28'715.1
2017-Dec-09 10:00N 01°11' E 103°35'611.4
2017-Dec-09 09:31N 01°13' E 103°40'611.3
2017-Dec-09 09:01N 01°16' E 103°45'1 2.7
2017-Dec-09 08:30N 01°16' E 103°46'0 0.0
2017-Dec-09 07:54N 01°16' E 103°46'0 0.0
2017-Dec-09 07:30N 01°16' E 103°46'0 0.0
2017-Dec-09 06:57N 01°16' E 103°46'0 0.0
2017-Dec-09 06:30N 01°16' E 103°46'0 0.0
2017-Dec-09 05:57N 01°16' E 103°46'0 0.0
2017-Dec-09 05:27N 01°16' E 103°46'0 0.0
2017-Dec-09 04:54N 01°16' E 103°46'0 0.0
2017-Dec-09 04:30N 01°16' E 103°46'0 0.0
2017-Dec-09 03:48N 01°16' E 103°46'0 0.0
2017-Dec-09 03:30N 01°16' E 103°46'0 0.0
2017-Dec-09 02:57N 01°16' E 103°46'0 0.0
2017-Dec-09 02:27N 01°16' E 103°46'0 0.0
2017-Dec-09 02:00N 01°16' E 103°46'0 0.0
2017-Dec-09 01:30N 01°16' E 103°46'0 0.0
2017-Dec-09 01:00N 01°16' E 103°46'0 0.0
2017-Dec-09 00:30N 01°16' E 103°46'0 0.0
2017-Dec-08 23:57N 01°16' E 103°46'0 0.0
2017-Dec-08 23:27N 01°16' E 103°46'0 0.0
2017-Dec-08 22:57N 01°16' E 103°46'0 0.0
2017-Dec-08 22:30N 01°16' E 103°46'0 0.0
2017-Dec-08 21:57N 01°16' E 103°46'0 0.0
2017-Dec-08 21:30N 01°16' E 103°46'0 0.0
2017-Dec-08 20:54N 01°16' E 103°46'0 0.0
2017-Dec-08 20:30N 01°16' E 103°46'0 0.0
2017-Dec-08 19:54N 01°16' E 103°46'0 0.0
2017-Dec-08 19:30N 01°16' E 103°46'0 0.0
2017-Dec-08 18:57N 01°16' E 103°46'0 0.0
2017-Dec-08 18:30N 01°16' E 103°46'0 0.0
2017-Dec-08 18:00N 01°16' E 103°46'0 0.0
2017-Dec-08 17:30N 01°16' E 103°46'0 0.0
2017-Dec-08 16:54N 01°16' E 103°46'0 0.0
2017-Dec-08 16:30N 01°16' E 103°46'0 0.0
2017-Dec-08 15:57N 01°16' E 103°46'0 0.0
2017-Dec-08 15:30N 01°16' E 103°46'0 0.0
2017-Dec-08 15:00N 01°16' E 103°46'1 1.0
2017-Dec-08 14:30N 01°16' E 103°46'4 7.3
2017-Dec-08 14:00N 01°13' E 103°48'510.5
2017-Dec-08 13:30N 01°14' E 103°54'2 3.8
2017-Dec-08 13:01N 01°14' E 103°55'510.6
2017-Dec-08 12:31N 01°16' E 104°01'611.1
2017-Dec-08 11:58N 01°16' E 104°06'  
2017-Dec-01 02:26N 31°06' E 122°24'3 5.5
2017-Dec-01 01:51N 31°07' E 122°27'7 0.6
2017-Nov-30 15:05N 31°06' E 122°19'113.9
2017-Nov-30 14:59N 31°07' E 122°18'1114.3
2017-Nov-30 14:12N 31°13' E 122°07'314.7
2017-Nov-30 14:00N 31°14' E 122°04'714.3
2017-Nov-30 13:30N 31°15' E 121°55'714.0
2017-Nov-30 13:00N 31°18' E 121°48'8 0.4
2017-Nov-29 19:05N 31°20' E 121°39'0 0.0
2017-Nov-29 18:59N 31°20' E 121°39'1 0.1
2017-Nov-29 12:25N 31°21' E 121°40'510.0
2017-Nov-29 11:56N 31°19' E 121°45'510.7
2017-Nov-29 11:30N 31°17' E 121°50'611.4
2017-Nov-29 10:57N 31°15' E 121°57'  

Dump ship's entire track history